Portada
METAR-TAF:

METAR-TAF

Aeropuertos :

Aeropuerto de Turín-Caselle

Turín, Italia

latitud: 45-13N, longitud: 007-39E, altitud: 301 m

Observación

El informe se hizo hace 17 minutos, a las 21:50 UTC
Viento 1 kt con dirección variable
Temperatura 3°C
Humedad 93%
Presión 1010 hPa
Visibilidad: 3000 m
Cielo nuboso a una altura de 1200 ft
Cielo cubierto a una altura de 2000 ft
neblina

METAR: LIMF 212150Z VRB01KT 3000 BR BKN012 OVC020 03/02 Q1010

Hora: 23:07 (22:07 UTC)

Pronóstico

El informe se hizo hace 5 horas y 7 minutos, a las 17:00 UTC
Pronóstico válido del 21 a las 18 UTC al 22 a las 18 UTC
Viento 3 kt con dirección variable
Visibilidad: 3000 m
Cielo nuboso a una altura de 3000 ft
neblina
Evolucionando progresivamente
del 21 a las 18 UTC al 21 a las 20 UTC
Visibilidad: 1500 m

TAF: LIMF 211700Z 2118/2218 VRB03KT 3000 BR BKN030 BECMG 2118/2120 1500

Observaciones y pronósticos meteorológicos de más de 4000 aeropuertos (mensajes METAR y TAF).

Los puntos amarillos y rojos representan las estaciones disponibles.

Ponga el ratón en el punto deseado para ver el nombre de la estación.

Haga clic para ver las observaciones y los pronósticos meteorológicos.

Para cambiar el mapa : haga clic en los botones verdes con una cruz de color negro para hacer un zoom, en el botón verde con un guión para alejar o en las flechas verdes para mapas adyacentes.


METAR-TAF: